Time;durP1;ratioP1;P1;durP2;ratioP2;P2;SDS_P1;SDS_P2;PMS_P1;PMS_P2;Temp;Humidity;BMP_temperature;BMP_pressure;BME280_temperature;BME280_humidity;BME280_pressure;Samples;Min_cycle;Max_cycle;Signal;HPM_P1;HPM_P2
2022/11/21 00:00:36;;;;;;;6.70;4.75;;;12.20;75.70;;;;;;5038436;28;20026;-80
2022/11/21 00:03:02;;;;;;;6.28;4.72;;;12.20;75.60;;;;;;5041498;28;20029;-81
2022/11/21 00:05:29;;;;;;;5.93;4.75;;;12.20;75.40;;;;;;5041469;28;20032;-81
2022/11/21 00:07:56;;;;;;;7.30;4.47;;;12.20;75.30;;;;;;5046135;28;20056;-81
2022/11/21 00:10:22;;;;;;;5.90;4.28;;;12.20;75.10;;;;;;5034193;28;20345;-80
2022/11/21 00:12:52;;;;;;;5.85;4.45;;;12.20;75.00;;;;;;5038199;28;20033;-81
2022/11/21 00:15:18;;;;;;;;;;;12.20;74.90;;;;;;5046610;28;20048;-80
2022/11/21 00:17:44;;;;;;;5.38;3.90;;;12.20;74.70;;;;;;5048761;28;19912;-79
2022/11/21 00:20:09;;;;;;;6.57;4.93;;;12.10;74.90;;;;;;5039385;28;20037;-79
2022/11/21 00:22:35;;;;;;;6.90;4.75;;;12.00;75.10;;;;;;5044636;28;20025;-79
2022/11/21 00:25:01;;;;;;;5.28;4.28;;;12.00;75.30;;;;;;5041137;28;20060;-79
2022/11/21 00:27:26;;;;;;;5.07;4.05;;;12.00;75.50;;;;;;5042906;28;20068;-79
2022/11/21 00:29:52;;;;;;;6.10;4.47;;;12.00;75.60;;;;;;5033524;28;20060;-79
2022/11/21 00:32:17;;;;;;;6.45;4.53;;;12.10;75.70;;;;;;5046757;28;20072;-79
2022/11/21 00:34:43;;;;;;;6.35;4.20;;;12.10;75.50;;;;;;5037050;28;20339;-79
2022/11/21 00:37:09;;;;;;;5.68;4.20;;;12.10;75.60;;;;;;5049607;28;20055;-78
2022/11/21 00:39:35;;;;;;;6.47;4.13;;;12.10;75.70;;;;;;5046918;28;20064;-79
2022/11/21 00:42:00;;;;;;;5.32;3.80;;;12.10;75.30;;;;;;5036609;28;20029;-79
2022/11/21 00:44:26;;;;;;;5.78;3.97;;;12.10;75.10;;;;;;5039879;28;20040;-79
2022/11/21 00:46:51;;;;;;;7.22;4.10;;;12.10;75.00;;;;;;5038026;28;20048;-79
2022/11/21 00:49:17;;;;;;;5.15;3.92;;;12.10;74.80;;;;;;5042416;28;20029;-79
2022/11/21 00:51:43;;;;;;;4.63;3.67;;;12.10;74.80;;;;;;5043607;28;20091;-82
2022/11/21 00:54:08;;;;;;;3.42;2.95;;;12.10;74.90;;;;;;5040555;28;20037;-82
2022/11/21 00:56:34;;;;;;;4.75;3.58;;;12.20;74.70;;;;;;5032147;28;20030;-81
2022/11/21 00:59:00;;;;;;;5.13;3.60;;;12.10;74.80;;;;;;5038759;28;20037;-82
2022/11/21 01:01:25;;;;;;;3.53;2.85;;;12.10;74.30;;;;;;5039533;28;20033;-82
2022/11/21 01:03:51;;;;;;;4.25;3.20;;;12.10;74.40;;;;;;5040956;28;20413;-82
2022/11/21 01:06:17;;;;;;;5.53;3.47;;;12.10;74.40;;;;;;5056946;28;20036;-81
2022/11/21 01:08:43;;;;;;;5.25;3.80;;;12.10;74.20;;;;;;5019732;28;20055;-81
2022/11/21 01:11:14;;;;;;;4.65;3.05;;;12.10;74.30;;;;;;5031448;28;20041;-80
2022/11/21 01:13:41;;;;;;;4.53;3.17;;;12.00;74.30;;;;;;5041597;28;20087;-81
2022/11/21 01:16:09;;;;;;;5.93;2.95;;;12.00;74.20;;;;;;5049356;28;20045;-81
2022/11/21 01:18:35;;;;;;;3.63;2.75;;;12.10;74.10;;;;;;5037815;28;20029;-82
2022/11/21 01:21:13;;;;;;;4.90;3.30;;;12.00;73.70;;;;;;5035520;28;20104;-80
2022/11/21 01:23:39;;;;;;;4.75;2.75;;;12.00;73.50;;;;;;5045528;28;20025;-81
2022/11/21 01:26:07;;;;;;;4.28;2.95;;;12.00;73.60;;;;;;5050820;28;20041;-81
2022/11/21 01:28:32;;;;;;;2.53;2.20;;;12.10;73.70;;;;;;5042141;28;20052;-80
2022/11/21 01:31:06;;;;;;;3.03;2.28;;;12.00;73.60;;;;;;5035823;28;20366;-81
2022/11/21 01:33:33;;;;;;;4.43;2.72;;;12.00;73.50;;;;;;5042386;28;20488;-80
2022/11/21 01:36:18;;;;;;;2.75;2.40;;;12.00;73.40;;;;;;5041526;28;20041;-82
2022/11/21 01:38:48;;;;;;;2.50;2.15;;;12.10;73.50;;;;;;5048191;28;20049;-82
2022/11/21 01:41:23;;;;;;;4.68;2.65;;;12.00;73.40;;;;;;5039656;28;20061;-81
2022/11/21 01:43:49;;;;;;;3.40;2.08;;;12.10;73.50;;;;;;5043997;28;20091;-81
2022/11/21 01:46:17;;;;;;;4.50;2.50;;;12.10;73.50;;;;;;5019190;28;20053;-82
2022/11/21 01:48:59;;;;;;;6.95;2.20;;;12.10;73.50;;;;;;5049943;28;20239;-82
2022/11/21 01:51:43;;;;;;;3.30;2.00;;;12.10;73.50;;;;;;5043939;28;20041;-82
2022/11/21 01:54:08;;;;;;;3.28;2.40;;;12.10;73.50;;;;;;5035063;28;20033;-81
2022/11/21 01:56:42;;;;;;;2.47;1.80;;;12.10;73.50;;;;;;5040867;28;20071;-81
2022/11/21 01:59:14;;;;;;;2.05;1.60;;;12.10;73.20;;;;;;5029374;28;20056;-81
2022/11/21 02:01:41;;;;;;;2.22;1.90;;;12.10;73.60;;;;;;5038833;28;20036;-82
2022/11/21 02:04:07;;;;;;;2.72;1.75;;;12.00;73.80;;;;;;5036364;28;20025;-80
2022/11/21 02:06:33;;;;;;;2.58;1.70;;;12.00;73.30;;;;;;5039588;28;20029;-81
2022/11/21 02:09:00;;;;;;;2.70;2.10;;;12.00;73.40;;;;;;5037348;28;20377;-82
2022/11/21 02:11:34;;;;;;;2.80;2.10;;;12.00;73.50;;;;;;5045834;28;20405;-82
2022/11/21 02:14:00;;;;;;;2.67;2.00;;;12.00;73.50;;;;;;5039220;28;20027;-82
2022/11/21 02:16:27;;;;;;;2.55;2.10;;;12.10;73.50;;;;;;5037032;28;20037;-79
2022/11/21 02:18:53;;;;;;;3.42;2.38;;;12.10;73.50;;;;;;5042569;28;20018;-80
2022/11/21 02:21:30;;;;;;;3.22;1.90;;;12.10;73.50;;;;;;5041486;28;20461;-81
2022/11/21 02:24:16;;;;;;;2.42;1.85;;;12.10;73.60;;;;;;5039471;28;20018;-80
2022/11/21 02:26:43;;;;;;;2.10;1.85;;;12.00;73.50;;;;;;5047964;28;20037;-79
2022/11/21 02:29:09;;;;;;;3.50;2.28;;;12.00;73.50;;;;;;5031258;28;20033;-79
2022/11/21 02:31:35;;;;;;;2.97;2.22;;;12.00;73.70;;;;;;5043141;28;20120;-79
2022/11/21 02:34:00;;;;;;;5.78;3.42;;;12.00;73.70;;;;;;5039628;28;20029;-80
2022/11/21 02:36:44;;;;;;;5.93;3.17;;;12.00;73.80;;;;;;5036553;28;20041;-80
2022/11/21 02:39:20;;;;;;;4.68;3.20;;;11.80;73.90;;;;;;5028980;28;20033;-80
2022/11/21 02:42:08;;;;;;;4.07;3.08;;;11.70;74.40;;;;;;5045119;28;20446;-80
2022/11/21 02:44:49;;;;;;;3.90;2.97;;;11.60;74.70;;;;;;5040167;28;20079;-80
2022/11/21 02:47:15;;;;;;;3.88;3.00;;;11.60;75.00;;;;;;5041955;28;20033;-80
2022/11/21 02:49:58;;;;;;;4.60;3.30;;;11.50;75.30;;;;;;5041434;28;20535;-79
2022/11/21 02:52:24;;;;;;;5.30;3.25;;;11.50;75.50;;;;;;5042354;28;20025;-81
2022/11/21 02:54:49;;;;;;;3.67;2.80;;;11.40;75.80;;;;;;5029251;28;20032;-80
2022/11/21 02:57:15;;;;;;;3.75;3.03;;;11.30;75.80;;;;;;5044228;28;20025;-80
2022/11/21 02:59:41;;;;;;;4.07;2.97;;;11.20;76.40;;;;;;5046847;28;20388;-81
2022/11/21 03:02:06;;;;;;;4.43;3.20;;;11.20;76.50;;;;;;5042671;28;20047;-81
2022/11/21 03:04:32;;;;;;;4.50;3.30;;;11.10;76.90;;;;;;5034822;28;20056;-81
2022/11/21 03:06:57;;;;;;;3.97;3.15;;;11.10;77.20;;;;;;5043100;28;20041;-81
2022/11/21 03:09:23;;;;;;;4.03;2.92;;;11.10;77.40;;;;;;5049391;28;20017;-81
2022/11/21 03:11:49;;;;;;;3.40;2.65;;;11.00;77.40;;;;;;5036827;28;20044;-81
2022/11/21 03:14:14;;;;;;;4.35;3.58;;;11.10;77.50;;;;;;5034573;28;20049;-81
2022/11/21 03:16:40;;;;;;;5.30;3.17;;;11.10;77.60;;;;;;5044227;28;20506;-81
2022/11/21 03:19:06;;;;;;;4.53;3.17;;;11.10;77.70;;;;;;5037585;28;20017;-82
2022/11/21 03:21:31;;;;;;;3.70;3.17;;;11.00;77.70;;;;;;5041179;28;20036;-82
2022/11/21 03:23:57;;;;;;;4.03;3.15;;;11.10;77.80;;;;;;5048104;28;20116;-82
2022/11/21 03:26:22;;;;;;;5.18;2.90;;;11.10;78.00;;;;;;5038110;28;20482;-82
2022/11/21 03:28:48;;;;;;;5.40;3.58;;;11.00;77.90;;;;;;5052203;28;20021;-83
2022/11/21 03:31:14;;;;;;;3.75;3.35;;;11.00;78.10;;;;;;5020594;28;20323;-83
2022/11/21 03:33:39;;;;;;;3.55;2.83;;;11.00;78.30;;;;;;5036191;28;20096;-82
2022/11/21 03:36:05;;;;;;;4.80;3.17;;;11.00;78.40;;;;;;5040864;28;20040;-82
2022/11/21 03:38:33;;;;;;;4.03;3.40;;;11.00;78.40;;;;;;5037671;28;20040;-80
2022/11/21 03:41:04;;;;;;;3.92;3.28;;;11.00;78.60;;;;;;5044662;28;20040;-79
2022/11/21 03:43:30;;;;;;;5.03;3.28;;;11.10;78.80;;;;;;5045185;28;20063;-79
2022/11/21 03:45:56;;;;;;;4.13;3.22;;;11.20;78.70;;;;;;5045780;28;20100;-79
2022/11/21 03:48:21;;;;;;;5.55;3.47;;;11.10;78.40;;;;;;5040441;28;20464;-79
2022/11/21 03:50:47;;;;;;;4.28;3.05;;;11.10;78.50;;;;;;5041918;28;20029;-79
2022/11/21 03:53:13;;;;;;;6.60;3.63;;;11.00;78.70;;;;;;5039802;28;20052;-79
2022/11/21 03:55:38;;;;;;;5.80;4.00;;;11.10;79.00;;;;;;5049425;28;20045;-82
2022/11/21 03:58:04;;;;;;;3.95;3.40;;;11.10;79.10;;;;;;5040006;28;20041;-82
2022/11/21 04:00:29;;;;;;;5.05;3.85;;;11.10;79.10;;;;;;5042108;28;20029;-82
2022/11/21 04:02:55;;;;;;;6.72;3.92;;;11.10;79.20;;;;;;5045284;28;20029;-81
2022/11/21 04:05:21;;;;;;;4.20;2.95;;;11.10;79.20;;;;;;5044518;28;20105;-82
2022/11/21 04:07:46;;;;;;;4.60;3.60;;;11.20;79.20;;;;;;5044243;28;20165;-80
2022/11/21 04:10:12;;;;;;;5.53;3.63;;;11.10;79.00;;;;;;5039773;28;20025;-81
2022/11/21 04:12:38;;;;;;;7.03;3.70;;;11.10;78.90;;;;;;5038826;28;20147;-80
2022/11/21 04:15:04;;;;;;;4.90;3.60;;;11.10;79.00;;;;;;5033888;28;20056;-80
2022/11/21 04:17:30;;;;;;;6.75;3.42;;;11.10;79.30;;;;;;5038537;28;20512;-80
2022/11/21 04:19:56;;;;;;;4.80;3.95;;;11.10;79.60;;;;;;5033273;28;20113;-80
2022/11/21 04:22:22;;;;;;;5.38;3.88;;;11.10;79.50;;;;;;5039728;28;20112;-80
2022/11/21 04:24:47;;;;;;;5.28;3.78;;;11.00;79.50;;;;;;5047173;28;20503;-82
2022/11/21 04:27:13;;;;;;;4.97;4.00;;;11.00;79.50;;;;;;5038588;28;20041;-82
2022/11/21 04:29:39;;;;;;;7.03;4.30;;;11.00;79.40;;;;;;5039988;28;20034;-81
2022/11/21 04:32:04;;;;;;;6.03;3.97;;;10.90;79.60;;;;;;5046361;28;20394;-80
2022/11/21 04:34:30;;;;;;;6.13;4.32;;;10.80;79.60;;;;;;5040701;28;20076;-80
2022/11/21 04:36:55;;;;;;;7.57;4.30;;;10.80;79.80;;;;;;5043441;28;20109;-80
2022/11/21 04:39:21;;;;;;;4.10;3.63;;;10.80;80.00;;;;;;5046455;28;20071;-80
2022/11/21 04:41:47;;;;;;;5.68;4.32;;;10.70;80.20;;;;;;5040626;28;20544;-81
2022/11/21 04:44:12;;;;;;;6.25;4.47;;;10.60;80.40;;;;;;5037545;28;20051;-81
2022/11/21 04:46:38;;;;;;;7.25;4.45;;;10.50;80.60;;;;;;5031823;28;20049;-80
2022/11/21 04:49:03;;;;;;;6.25;4.07;;;10.50;80.80;;;;;;5023674;28;20038;-83
2022/11/21 04:51:29;;;;;;;6.43;4.47;;;10.50;80.90;;;;;;5038143;28;20025;-82
2022/11/21 04:53:55;;;;;;;7.95;4.22;;;10.40;80.90;;;;;;5036892;28;20419;-82
2022/11/21 04:56:20;;;;;;;5.60;4.03;;;10.30;81.00;;;;;;5043523;28;20043;-83
2022/11/21 04:58:46;;;;;;;5.70;4.50;;;10.30;81.40;;;;;;5046842;28;20024;-81
2022/11/21 05:01:11;;;;;;;5.93;4.38;;;10.30;81.60;;;;;;5039158;28;20386;-82
2022/11/21 05:03:37;;;;;;;7.20;5.28;;;10.30;81.70;;;;;;5043029;28;20030;-82
2022/11/21 05:06:03;;;;;;;6.65;5.15;;;10.30;81.90;;;;;;5041671;28;20025;-82
2022/11/21 05:08:28;;;;;;;8.00;4.22;;;10.20;81.90;;;;;;5038006;28;20041;-82
2022/11/21 05:13:39;;;;;;;6.50;3.95;;;10.20;82.10;;;;;;5048525;28;20063;-82
2022/11/21 05:16:04;;;;;;;5.57;4.22;;;10.20;82.10;;;;;;5020762;28;20025;-82
2022/11/21 05:18:30;;;;;;;7.75;4.50;;;10.20;82.10;;;;;;5044212;28;20025;-82
2022/11/21 05:20:56;;;;;;;5.70;4.10;;;10.20;82.10;;;;;;5046503;28;20022;-81
2022/11/21 05:23:22;;;;;;;6.28;4.55;;;10.30;82.00;;;;;;5037652;28;20471;-81
2022/11/21 05:25:47;;;;;;;6.15;4.47;;;10.30;82.00;;;;;;5043796;28;20052;-81
2022/11/21 05:28:13;;;;;;;6.63;4.47;;;10.30;81.90;;;;;;5038967;28;20021;-82
2022/11/21 05:30:38;;;;;;;5.13;3.80;;;10.20;82.00;;;;;;5024911;28;20117;-82
2022/11/21 05:33:04;;;;;;;5.13;4.20;;;10.20;82.10;;;;;;5037222;28;20037;-82
2022/11/21 05:35:30;;;;;;;9.75;4.68;;;10.30;82.20;;;;;;5036717;28;20082;-82
2022/11/21 05:37:57;;;;;;;5.40;3.95;;;10.30;82.20;;;;;;5047281;28;20486;-82
2022/11/21 05:40:24;;;;;;;8.25;4.20;;;10.30;82.20;;;;;;5033524;28;20029;-82
2022/11/21 05:45:33;;;;;;;6.53;4.38;;;10.40;82.30;;;;;;5039198;28;20061;-82
2022/11/21 05:47:59;;;;;;;7.50;4.45;;;10.40;82.10;;;;;;5029076;28;20036;-82
2022/11/21 05:50:25;;;;;;;5.38;4.10;;;10.40;82.00;;;;;;5047726;28;20726;-83
2022/11/21 05:52:50;;;;;;;6.78;4.25;;;10.20;82.20;;;;;;5042695;28;20024;-83
2022/11/21 05:55:16;;;;;;;7.15;4.60;;;10.20;82.30;;;;;;5023512;28;20036;-83
2022/11/21 05:57:41;;;;;;;6.75;5.25;;;10.20;82.50;;;;;;5042332;28;20029;-82
2022/11/21 06:00:08;;;;;;;6.47;4.63;;;10.20;82.50;;;;;;5044458;28;20056;-82
2022/11/21 06:05:18;;;;;;;7.07;4.57;;;10.10;82.60;;;;;;5041709;28;20476;-82
2022/11/21 06:07:43;;;;;;;5.95;4.10;;;10.10;82.70;;;;;;5042471;28;20049;-81
2022/11/21 06:10:09;;;;;;;4.85;4.30;;;10.20;82.90;;;;;;5040545;28;20043;-81
2022/11/21 06:12:35;;;;;;;6.50;4.85;;;10.20;82.70;;;;;;5046397;28;20035;-84
2022/11/21 06:15:00;;;;;;;8.35;4.80;;;10.20;82.60;;;;;;5047374;28;20637;-82
2022/11/21 06:17:26;;;;;;;6.57;4.10;;;10.30;82.60;;;;;;5041869;28;20359;-81
2022/11/21 06:19:51;;;;;;;5.60;4.35;;;10.30;82.60;;;;;;5036632;28;20059;-81
2022/11/21 06:22:17;;;;;;;7.07;5.05;;;10.30;82.60;;;;;;5037925;28;20047;-80
2022/11/21 06:24:43;;;;;;;5.45;4.63;;;10.40;82.50;;;;;;5046333;28;20373;-82
2022/11/21 06:27:08;;;;;;;8.38;3.97;;;10.40;82.80;;;;;;5044054;28;20027;-81
2022/11/21 06:29:34;;;;;;;5.68;4.28;;;10.40;83.60;;;;;;5024790;28;20258;-81
2022/11/21 06:32:00;;;;;;;6.75;4.32;;;10.50;83.30;;;;;;5041848;28;20044;-81
2022/11/21 06:34:26;;;;;;;6.28;4.45;;;10.60;82.40;;;;;;5034940;28;20017;-77
2022/11/21 06:36:51;;;;;;;6.97;3.97;;;10.60;82.30;;;;;;5040213;28;20369;-78
2022/11/21 06:39:17;;;;;;;9.82;4.50;;;10.60;82.80;;;;;;5038181;28;20029;-78
2022/11/21 06:41:49;;;;;;;5.38;4.18;;;10.60;82.10;;;;;;5040169;28;20478;-77
2022/11/21 06:44:18;;;;;;;6.85;4.65;;;10.60;82.00;;;;;;5035135;28;20037;-77
2022/11/21 06:46:44;;;;;;;6.05;4.88;;;10.50;82.20;;;;;;5043638;28;20044;-77
2022/11/21 06:49:10;;;;;;;6.75;4.75;;;10.50;83.20;;;;;;5041072;28;20079;-76
2022/11/21 06:51:35;;;;;;;9.80;5.00;;;10.60;83.20;;;;;;5052566;28;20041;-75
2022/11/21 06:54:01;;;;;;;7.30;4.63;;;10.60;82.60;;;;;;5067627;28;20511;-79
2022/11/21 06:56:29;;;;;;;7.57;5.05;;;10.70;82.30;;;;;;5062292;28;20033;-80
2022/11/21 06:58:55;;;;;;;7.28;5.25;;;10.70;82.10;;;;;;5037700;28;20112;-75
2022/11/21 07:01:21;;;;;;;7.40;5.35;;;10.80;81.80;;;;;;5044503;28;20033;-84
2022/11/21 07:03:47;;;;;;;6.97;4.70;;;10.80;81.80;;;;;;5058173;28;20115;-76
2022/11/21 07:06:13;;;;;;;8.45;5.28;;;10.80;81.90;;;;;;5055490;28;20107;-77
2022/11/21 07:08:39;;;;;;;6.88;4.68;;;10.70;81.70;;;;;;5055463;28;20029;-76
2022/11/21 07:11:10;;;;;;;6.20;4.53;;;10.70;81.80;;;;;;5056652;28;20051;-76
2022/11/21 07:13:36;;;;;;;6.90;4.45;;;10.70;81.90;;;;;;5044891;28;20047;-78
2022/11/21 07:16:04;;;;;;;7.15;4.65;;;10.70;81.90;;;;;;5045385;28;20112;-77
2022/11/21 07:18:30;;;;;;;7.65;5.13;;;10.70;81.90;;;;;;5050535;28;20404;-87
2022/11/21 07:21:00;;;;;;;7.28;5.65;;;10.70;82.00;;;;;;5046608;28;20029;-87
2022/11/21 07:23:27;;;;;;;8.90;5.28;;;10.80;82.80;;;;;;5043886;28;20017;-88
2022/11/21 07:25:53;;;;;;;7.25;5.45;;;10.80;82.30;;;;;;5052935;28;20045;-88
2022/11/21 07:28:18;;;;;;;8.32;5.18;;;10.80;82.30;;;;;;5050608;28;20040;-89
2022/11/21 07:30:46;;;;;;;6.35;5.00;;;10.80;82.20;;;;;;5032839;28;20033;-87
2022/11/21 07:33:11;;;;;;;7.70;4.72;;;10.90;82.30;;;;;;5060056;28;20480;-87
2022/11/21 07:35:37;;;;;;;6.65;4.68;;;10.90;82.20;;;;;;5058824;28;20040;-88
2022/11/21 07:38:03;;;;;;;8.50;5.03;;;10.90;82.20;;;;;;5054926;28;20109;-87
2022/11/21 07:40:32;;;;;;;7.78;4.97;;;10.90;82.20;;;;;;5051319;28;20017;-88
2022/11/21 07:43:09;;;;;;;7.13;4.78;;;10.90;82.20;;;;;;5055206;28;20017;-89
2022/11/21 07:45:35;;;;;;;8.68;5.32;;;10.90;82.20;;;;;;5035338;28;20138;-88
2022/11/21 07:48:02;;;;;;;8.65;4.68;;;10.90;82.30;;;;;;5047003;28;20500;-88
2022/11/21 07:50:28;;;;;;;8.65;6.10;;;10.90;82.20;;;;;;5056192;28;20020;-82
2022/11/21 07:52:58;;;;;;;8.63;5.30;;;10.90;82.40;;;;;;5062389;28;20082;-82
2022/11/21 07:55:24;;;;;;;10.18;5.45;;;10.80;82.10;;;;;;5055955;28;20033;-82
2022/11/21 07:58:07;;;;;;;8.85;5.50;;;10.90;82.20;;;;;;5059001;28;20094;-82
2022/11/21 08:00:35;;;;;;;8.98;5.63;;;10.90;82.30;;;;;;5048290;28;20024;-82
2022/11/21 08:03:01;;;;;;;8.63;5.18;;;10.90;81.70;;;;;;5057306;28;20040;-81
2022/11/21 08:05:26;;;;;;;8.15;5.22;;;10.80;81.70;;;;;;5063332;28;20947;-81
2022/11/21 08:07:52;;;;;;;8.45;4.93;;;10.90;81.70;;;;;;5066434;28;20071;-81
2022/11/21 08:10:18;;;;;;;8.95;6.40;;;10.90;81.80;;;;;;5019332;28;20040;-81
2022/11/21 08:12:44;;;;;;;7.90;4.63;;;10.90;81.40;;;;;;5060451;28;20029;-81
2022/11/21 08:15:10;;;;;;;9.00;6.00;;;11.00;81.50;;;;;;5061790;28;20393;-81
2022/11/21 08:17:37;;;;;;;6.05;4.40;;;11.00;81.10;;;;;;5051157;28;20033;-81
2022/11/21 08:20:06;;;;;;;8.13;5.28;;;11.00;81.20;;;;;;5057703;28;20032;-81
2022/11/21 08:22:36;;;;;;;7.93;5.03;;;11.10;81.30;;;;;;5060838;28;20028;-81
2022/11/21 08:25:01;;;;;;;7.78;4.82;;;11.20;81.20;;;;;;5054912;28;20036;-81
2022/11/21 08:27:27;;;;;;;6.38;5.10;;;11.30;80.90;;;;;;5049556;28;20062;-81
2022/11/21 08:29:53;;;;;;;6.75;4.68;;;11.40;80.80;;;;;;5061490;28;20115;-80
2022/11/21 08:32:18;;;;;;;6.72;4.78;;;11.50;79.70;;;;;;5057144;28;20041;-81
2022/11/21 08:34:44;;;;;;;5.18;3.60;;;11.50;78.40;;;;;;5047742;28;20043;-81
2022/11/21 08:37:10;;;;;;;6.15;3.97;;;11.50;79.20;;;;;;5042393;28;20043;-80
2022/11/21 08:39:35;;;;;;;7.97;4.20;;;11.60;79.40;;;;;;5063941;28;20492;-80
2022/11/21 08:42:04;;;;;;;9.07;4.28;;;11.70;79.00;;;;;;5053360;28;20033;-81
2022/11/21 08:44:30;;;;;;;6.25;3.95;;;11.80;79.00;;;;;;5058446;28;20036;-81
2022/11/21 08:46:57;;;;;;;5.70;3.75;;;11.90;79.40;;;;;;5063200;28;20040;-81
2022/11/21 08:49:23;;;;;;;8.68;4.40;;;12.00;78.40;;;;;;5046446;28;20385;-81
2022/11/21 08:51:48;;;;;;;3.70;3.30;;;12.10;76.70;;;;;;5051550;28;20052;-81
2022/11/21 08:54:16;;;;;;;5.75;3.78;;;12.00;77.00;;;;;;5047254;28;20029;-80
2022/11/21 08:56:41;;;;;;;3.80;3.38;;;12.00;77.20;;;;;;5054051;28;20126;-81
2022/11/21 08:59:07;;;;;;;4.80;3.38;;;12.10;77.40;;;;;;5054122;28;20045;-81
2022/11/21 09:01:32;;;;;;;4.97;3.33;;;12.20;77.10;;;;;;5052830;28;20029;-81
2022/11/21 09:03:58;;;;;;;4.93;4.05;;;12.20;77.00;;;;;;5053087;28;20484;-81
2022/11/21 09:06:24;;;;;;;4.03;3.53;;;12.30;76.90;;;;;;5042668;28;20033;-80
2022/11/21 09:08:50;;;;;;;4.47;3.58;;;12.40;76.60;;;;;;5058994;28;20453;-81
2022/11/21 09:11:15;;;;;;;4.20;3.50;;;12.40;76.50;;;;;;5031419;28;20392;-78
2022/11/21 09:13:41;;;;;;;5.00;3.60;;;12.50;76.40;;;;;;5048234;28;20128;-82
2022/11/21 09:18:54;;;;;;;5.65;4.28;;;12.60;75.80;;;;;;5046313;28;20080;-81
2022/11/21 09:21:20;;;;;;;5.40;3.83;;;12.60;75.80;;;;;;5047222;28;20431;-81
2022/11/21 09:23:47;;;;;;;4.45;3.85;;;12.70;76.00;;;;;;5063259;28;20051;-75
2022/11/21 09:26:13;;;;;;;7.10;4.93;;;12.70;76.10;;;;;;5040796;28;20020;-81
2022/11/21 09:28:40;;;;;;;6.25;4.18;;;12.80;75.90;;;;;;5062941;28;20027;-77
2022/11/21 09:31:06;;;;;;;7.38;5.00;;;12.80;75.50;;;;;;5067562;28;20020;-81
2022/11/21 09:33:32;;;;;;;6.00;4.28;;;12.80;75.90;;;;;;5066258;28;20095;-82
2022/11/21 09:36:05;;;;;;;7.75;4.90;;;12.90;76.00;;;;;;5058866;28;20112;-80
2022/11/21 09:38:37;;;;;;;7.93;5.25;;;13.00;76.00;;;;;;5046662;28;20040;-83
2022/11/21 09:44:27;;;;;;;6.53;4.55;;;13.10;75.50;;;;;;5076436;28;20044;-83
2022/11/21 09:47:06;;;;;;;6.45;4.50;;;13.10;75.60;;;;;;5055670;28;20090;-83
2022/11/21 09:49:42;;;;;;;10.15;4.97;;;13.20;75.50;;;;;;5054450;28;20044;-83
2022/11/21 09:52:12;;;;;;;5.88;4.82;;;13.20;75.20;;;;;;5027024;28;20033;-83
2022/11/21 09:54:46;;;;;;;6.40;5.25;;;13.20;75.40;;;;;;5051013;28;20032;-83
2022/11/21 09:57:16;;;;;;;6.45;4.75;;;13.20;75.30;;;;;;5034628;28;20082;-84
2022/11/21 09:59:43;;;;;;;8.65;5.00;;;13.30;75.20;;;;;;5036946;28;20021;-83
2022/11/21 10:02:16;;;;;;;7.25;5.05;;;13.30;75.00;;;;;;5048436;28;20185;-83
2022/11/21 10:04:43;;;;;;;8.60;4.75;;;13.40;74.20;;;;;;5047420;28;20025;-81
2022/11/21 10:07:15;;;;;;;6.93;4.53;;;13.40;74.70;;;;;;5035318;28;20029;-83
2022/11/21 10:09:50;;;;;;;6.53;4.45;;;13.50;74.10;;;;;;5032984;28;20112;-84
2022/11/21 10:12:48;;;;;;;9.95;5.20;;;13.60;74.50;;;;;;5052514;28;20365;-83
2022/11/21 10:15:31;;;;;;;3.95;3.40;;;13.70;73.00;;;;;;5016653;28;20131;-80
2022/11/21 10:18:00;;;;;;;3.85;3.08;;;13.70;72.30;;;;;;5033341;28;20025;-83
2022/11/21 10:20:26;;;;;;;4.18;2.78;;;13.60;72.30;;;;;;5051294;28;20355;-83
2022/11/21 10:22:58;;;;;;;3.38;2.38;;;13.70;72.50;;;;;;5035243;28;20087;-80
2022/11/21 10:25:39;;;;;;;3.67;2.95;;;13.70;72.00;;;;;;5043444;28;20032;-80
2022/11/21 10:28:14;;;;;;;5.07;3.20;;;13.80;71.20;;;;;;5042469;28;20480;-80
2022/11/21 10:30:43;;;;;;;5.53;3.38;;;13.90;70.10;;;;;;5051184;28;20033;-83
2022/11/21 10:33:30;;;;;;;3.85;3.15;;;13.80;70.90;;;;;;5047912;28;20044;-81
2022/11/21 10:36:03;;;;;;;3.75;3.05;;;13.90;71.00;;;;;;5045098;28;20060;-81
2022/11/21 10:38:34;;;;;;;4.25;3.40;;;13.90;71.50;;;;;;5050764;28;20029;-83
2022/11/21 10:41:11;;;;;;;;;;;14.00;71.80;;;;;;5050022;28;20067;-82
2022/11/21 10:46:59;;;;;;;5.88;3.33;;;14.30;71.50;;;;;;5071115;28;20109;-82
2022/11/21 10:49:28;;;;;;;4.32;3.00;;;14.60;70.90;;;;;;5071956;28;20052;-83
2022/11/21 10:52:05;;;;;;;4.20;3.00;;;14.80;69.00;;;;;;5044168;28;20041;-79
2022/11/21 10:54:31;;;;;;;4.15;3.53;;;14.90;69.90;;;;;;5058501;28;20037;-79
2022/11/21 10:57:16;;;;;;;3.85;3.22;;;15.10;70.10;;;;;;5041303;28;20066;-80
2022/11/21 10:59:55;;;;;;;5.50;4.57;;;15.40;69.80;;;;;;5072734;28;20074;-80
2022/11/21 11:02:23;;;;;;;5.88;4.32;;;15.40;65.30;;;;;;5065872;28;20050;-80
2022/11/21 11:05:14;;;;;;;7.40;4.75;;;15.40;66.70;;;;;;5068949;28;20016;-79
2022/11/21 11:07:40;;;;;;;7.72;5.18;;;15.50;68.30;;;;;;5071238;28;20128;-79
2022/11/21 11:10:20;;;;;;;6.55;4.60;;;15.60;68.10;;;;;;5071235;28;20520;-79
2022/11/21 11:15:33;;;;;;;6.15;4.88;;;16.10;68.60;;;;;;5067853;28;20074;-79
2022/11/21 11:18:02;;;;;;;8.32;5.50;;;16.40;68.80;;;;;;5065423;28;20084;-79
2022/11/21 11:20:31;;;;;;;7.55;5.95;;;16.70;68.70;;;;;;5048410;28;20025;-78
2022/11/21 11:22:57;;;;;;;9.48;5.78;;;17.00;68.50;;;;;;5047971;28;20120;-78
2022/11/21 11:25:23;;;;;;;9.13;5.45;;;17.30;68.30;;;;;;5065759;28;20111;-79
2022/11/21 11:27:48;;;;;;;8.75;6.25;;;17.70;68.20;;;;;;5065231;28;20064;-79
2022/11/21 11:30:16;;;;;;;8.40;6.20;;;18.00;63.80;;;;;;5073713;28;20059;-79
2022/11/21 11:32:41;;;;;;;7.50;5.85;;;18.30;62.40;;;;;;5063906;28;20025;-79
2022/11/21 11:35:21;;;;;;;9.27;7.55;;;18.90;63.10;;;;;;5065246;28;20082;-79
2022/11/21 11:38:03;;;;;;;9.25;6.72;;;19.80;61.80;;;;;;5064196;28;20096;-81
2022/11/21 11:40:31;;;;;;;11.35;7.43;;;20.70;60.30;;;;;;5055799;28;20036;-82
2022/11/21 11:48:51;;;;;;;11.75;7.95;;;23.00;54.00;;;;;;5042131;28;20044;-79
2022/11/21 11:51:22;;;;;;;12.00;7.63;;;23.60;52.30;;;;;;5055860;28;20045;-79
2022/11/21 11:53:56;;;;;;;11.00;8.60;;;24.10;50.90;;;;;;5036845;28;20044;-79
2022/11/21 11:56:26;;;;;;;12.10;8.25;;;24.00;49.30;;;;;;5023276;28;20385;-82
2022/11/21 11:59:00;;;;;;;;;;;23.70;49.50;;;;;;5053543;28;20566;-84
2022/11/21 12:01:41;;;;;;;13.30;10.63;;;23.50;50.40;;;;;;5046024;28;19908;-83
2022/11/21 12:04:09;;;;;;;15.02;11.73;;;23.60;50.70;;;;;;5032910;28;20021;-82
2022/11/21 12:06:47;;;;;;;12.13;10.15;;;23.90;50.70;;;;;;5051695;28;20025;-83
2022/11/21 12:09:16;;;;;;;13.48;11.23;;;24.20;49.60;;;;;;5042177;28;20423;-83
2022/11/21 12:12:07;;;;;;;14.95;10.55;;;24.10;49.10;;;;;;5063347;28;20067;-83
2022/11/21 12:18:15;;;;;;;13.88;10.30;;;23.70;48.50;;;;;;5057035;28;20488;-82
2022/11/21 12:20:59;;;;;;;11.90;9.43;;;23.70;48.70;;;;;;5037416;28;20029;-82
2022/11/21 12:23:30;;;;;;;10.55;7.65;;;23.90;48.60;;;;;;5052468;28;20108;-78
2022/11/21 12:26:14;;;;;;;6.65;5.72;;;23.90;48.10;;;;;;5038333;28;20060;-85
2022/11/21 12:29:05;;;;;;;9.20;6.72;;;23.80;48.30;;;;;;5051211;28;20428;-89
2022/11/21 12:31:56;;;;;;;8.70;5.85;;;23.70;48.60;;;;;;5047907;28;20037;-85
2022/11/21 12:34:43;;;;;;;6.40;5.43;;;23.60;48.80;;;;;;5069021;28;20039;-86
2022/11/21 12:37:26;;;;;;;6.05;5.00;;;23.40;48.70;;;;;;5053099;28;20044;-87
2022/11/21 12:40:00;;;;;;;5.32;4.80;;;23.30;49.30;;;;;;5061126;28;20025;-81
2022/11/21 12:42:53;;;;;;;5.75;4.55;;;23.30;49.70;;;;;;5072689;28;20033;-82
2022/11/21 12:45:30;;;;;;;8.18;4.78;;;23.30;49.50;;;;;;5060175;28;20381;-82
2022/11/21 12:55:00;;;;;;;6.03;4.35;;;23.50;48.90;;;;;;5056801;28;20101;-85
2022/11/21 12:57:34;;;;;;;;;;;23.40;48.50;;;;;;5063566;28;20024;-87
2022/11/21 13:00:21;;;;;;;8.05;4.82;;;23.40;48.80;;;;;;5061565;28;19934;-87
2022/11/21 13:03:02;;;;;;;5.32;4.82;;;23.50;48.80;;;;;;5059078;28;20042;-87
2022/11/21 13:05:31;;;;;;;6.75;5.28;;;23.30;48.30;;;;;;5073121;28;20021;-88
2022/11/21 13:08:11;;;;;;;6.63;5.30;;;23.10;48.20;;;;;;5049496;28;20100;-83
2022/11/21 13:10:45;;;;;;;5.55;4.88;;;22.70;48.40;;;;;;5045878;28;20021;-82
2022/11/21 13:13:30;;;;;;;7.38;5.13;;;22.20;49.20;;;;;;5054792;28;20037;-82
2022/11/21 13:16:05;;;;;;;5.40;4.55;;;21.60;50.10;;;;;;5057147;28;20033;-83
2022/11/21 13:18:41;;;;;;;6.60;4.72;;;21.00;50.60;;;;;;5054955;28;20063;-83
2022/11/21 13:21:39;;;;;;;5.47;4.25;;;20.40;51.60;;;;;;5048530;28;20443;-81
2022/11/21 13:24:06;;;;;;;5.40;4.72;;;19.90;52.60;;;;;;5047029;28;20037;-81
2022/11/21 13:26:32;;;;;;;6.18;4.80;;;19.40;53.70;;;;;;5052071;28;20056;-81
2022/11/21 13:29:12;;;;;;;5.68;4.75;;;19.00;54.70;;;;;;5061915;28;20489;-83
2022/11/21 13:31:39;;;;;;;9.15;5.30;;;18.60;55.70;;;;;;5051943;28;20088;-83
2022/11/21 13:34:31;;;;;;;5.85;4.38;;;18.40;56.30;;;;;;5048179;28;20469;-84